Time;durP1;ratioP1;P1;durP2;ratioP2;P2;SDS_P1;SDS_P2;PMS_P1;PMS_P2;Temp;Humidity;BMP_temperature;BMP_pressure;BME280_temperature;BME280_humidity;BME280_pressure;Samples;Min_cycle;Max_cycle;Signal;HPM_P1;HPM_P2
2023/10/02 00:05:06;;;;;;;18.17;8.87;;;16.30;99.90;;;;;;5099846;28;20443;-82
2023/10/02 00:07:34;;;;;;;14.60;8.93;;;16.30;99.90;;;;;;5094493;28;20225;-82
2023/10/02 00:10:01;;;;;;;15.23;8.67;;;16.30;99.90;;;;;;5094326;28;20309;-82
2023/10/02 00:12:28;;;;;;;14.27;8.80;;;16.30;99.90;;;;;;5096031;28;20226;-82
2023/10/02 00:14:57;;;;;;;15.00;9.33;;;16.30;99.90;;;;;;5095833;28;20286;-82
2023/10/02 00:17:25;;;;;;;19.03;9.33;;;16.30;99.90;;;;;;5097508;28;20312;-82
2023/10/02 00:19:57;;;;;;;16.17;8.97;;;16.30;99.90;;;;;;5097590;28;20217;-82
2023/10/02 00:22:41;;;;;;;15.33;8.93;;;16.30;99.90;;;;;;5097113;28;20240;-82
2023/10/02 00:25:10;;;;;;;16.23;9.00;;;16.30;99.90;;;;;;5097188;28;20235;-81
2023/10/02 00:27:37;;;;;;;16.80;8.83;;;16.30;99.90;;;;;;5097578;28;20971;-81
2023/10/02 00:30:07;;;;;;;16.13;8.77;;;16.30;99.90;;;;;;5095420;28;20224;-81
2023/10/02 00:32:40;;;;;;;13.17;8.50;;;16.30;99.90;;;;;;5096723;28;20218;-83
2023/10/02 00:35:10;;;;;;;15.23;9.00;;;16.30;99.90;;;;;;5097510;28;21074;-83
2023/10/02 00:37:47;;;;;;;15.73;9.13;;;16.30;99.90;;;;;;5089646;28;20244;-82
2023/10/02 00:40:20;;;;;;;13.50;8.03;;;16.30;99.90;;;;;;5098361;28;20896;-83
2023/10/02 00:42:48;;;;;;;14.63;8.80;;;16.30;99.90;;;;;;5086337;28;20227;-82
2023/10/02 00:45:18;;;;;;;15.33;9.27;;;16.30;99.90;;;;;;5082780;28;20214;-83
2023/10/02 00:47:47;;;;;;;15.53;8.50;;;16.30;99.90;;;;;;5081838;28;20237;-82
2023/10/02 00:50:19;;;;;;;14.43;8.83;;;16.20;99.90;;;;;;5084116;28;20234;-82
2023/10/02 00:52:54;;;;;;;14.47;8.30;;;16.20;99.90;;;;;;5084414;28;20252;-82
2023/10/02 00:55:24;;;;;;;18.50;9.47;;;16.20;99.90;;;;;;5083859;28;20226;-82
2023/10/02 00:57:53;;;;;;;14.17;8.60;;;16.20;99.90;;;;;;5083472;28;20264;-83
2023/10/02 01:00:30;;;;;;;17.00;9.07;;;16.20;99.90;;;;;;5079186;28;20837;-83
2023/10/02 01:03:01;;;;;;;14.77;8.80;;;16.20;99.90;;;;;;5081660;28;20299;-82
2023/10/02 01:05:41;;;;;;;14.87;9.27;;;16.20;99.90;;;;;;5083024;28;20759;-83
2023/10/02 01:08:23;;;;;;;13.77;8.53;;;16.20;99.90;;;;;;5080953;28;20898;-82
2023/10/02 01:10:56;;;;;;;13.33;8.73;;;16.10;99.90;;;;;;5079673;28;20226;-83
2023/10/02 01:13:27;;;;;;;15.37;8.83;;;16.10;99.90;;;;;;5081760;28;21003;-83
2023/10/02 01:15:55;;;;;;;16.40;9.27;;;16.10;99.90;;;;;;5082021;28;20698;-83
2023/10/02 01:18:27;;;;;;;15.43;9.20;;;16.00;99.90;;;;;;5075867;28;20221;-82
2023/10/02 01:20:54;;;;;;;15.67;9.50;;;16.00;99.90;;;;;;5083048;28;20237;-83
2023/10/02 01:23:25;;;;;;;16.63;9.70;;;16.00;99.90;;;;;;5082572;28;20244;-83
2023/10/02 01:25:57;;;;;;;13.77;8.80;;;16.00;99.90;;;;;;5081758;28;20228;-83
2023/10/02 01:28:26;;;;;;;16.13;9.40;;;15.90;99.90;;;;;;5080500;28;20233;-83
2023/10/02 01:30:55;;;;;;;17.87;10.17;;;16.00;99.90;;;;;;5075582;28;20227;-83
2023/10/02 01:33:26;;;;;;;19.40;10.30;;;16.00;99.90;;;;;;5080995;28;20304;-82
2023/10/02 01:35:55;;;;;;;17.27;9.97;;;16.00;99.90;;;;;;5080424;28;20306;-81
2023/10/02 01:38:29;;;;;;;15.80;9.30;;;16.00;99.90;;;;;;5079927;28;20723;-81
2023/10/02 01:41:04;;;;;;;16.83;9.80;;;16.00;99.90;;;;;;5080861;28;20325;-82
2023/10/02 01:43:35;;;;;;;16.67;9.77;;;16.00;99.90;;;;;;5073042;28;20949;-82
2023/10/02 01:46:05;;;;;;;16.57;9.70;;;16.00;99.90;;;;;;5081207;28;20245;-81
2023/10/02 01:48:39;;;;;;;18.67;9.60;;;16.00;99.90;;;;;;5080782;28;20866;-81
2023/10/02 01:51:25;;;;;;;14.43;9.03;;;16.00;99.90;;;;;;5077390;28;20228;-81
2023/10/02 01:53:55;;;;;;;17.80;9.80;;;16.00;99.90;;;;;;5077138;28;20246;-80
2023/10/02 01:56:24;;;;;;;14.97;9.13;;;16.00;99.90;;;;;;5072338;28;20308;-80
2023/10/02 01:58:52;;;;;;;19.37;10.80;;;16.00;99.90;;;;;;5079617;28;20218;-81
2023/10/02 02:01:21;;;;;;;17.90;10.10;;;16.00;99.90;;;;;;5078253;28;20214;-81
2023/10/02 02:03:50;;;;;;;18.23;9.70;;;16.00;99.90;;;;;;5077789;28;20229;-81
2023/10/02 02:06:20;;;;;;;18.93;10.50;;;16.00;99.90;;;;;;5078865;28;20320;-82
2023/10/02 02:08:53;;;;;;;17.97;9.40;;;16.00;99.90;;;;;;5094253;28;20218;-81
2023/10/02 02:11:21;;;;;;;17.10;10.33;;;16.00;99.90;;;;;;5079832;28;20214;-80
2023/10/02 02:13:51;;;;;;;15.87;9.97;;;16.00;99.90;;;;;;5081617;28;20777;-82
2023/10/02 02:16:22;;;;;;;15.30;9.60;;;16.00;99.90;;;;;;5077289;28;20212;-81
2023/10/02 02:18:53;;;;;;;17.73;9.93;;;16.00;99.90;;;;;;5082131;28;20900;-81
2023/10/02 02:21:24;;;;;;;16.73;9.43;;;16.00;99.90;;;;;;5080360;28;20704;-81
2023/10/02 02:24:03;;;;;;;18.00;10.27;;;16.00;99.90;;;;;;5082604;28;20229;-81
2023/10/02 02:26:31;;;;;;;15.60;9.70;;;16.00;99.90;;;;;;5082521;28;20579;-80
2023/10/02 02:29:00;;;;;;;19.23;10.13;;;16.00;99.90;;;;;;5077670;28;20237;-81
2023/10/02 02:31:31;;;;;;;20.03;9.70;;;16.00;99.90;;;;;;5082019;28;20741;-81
2023/10/02 02:34:00;;;;;;;17.67;10.67;;;16.00;99.90;;;;;;5081041;28;20283;-81
2023/10/02 02:36:28;;;;;;;17.40;10.07;;;16.00;99.90;;;;;;5081260;28;20271;-81
2023/10/02 02:39:15;;;;;;;18.50;10.10;;;16.00;99.90;;;;;;5069940;28;20234;-81
2023/10/02 02:41:43;;;;;;;18.03;9.93;;;16.00;99.90;;;;;;5078571;28;20235;-81
2023/10/02 02:46:55;;;;;;;19.63;9.97;;;16.00;99.90;;;;;;5081022;28;20216;-81
2023/10/02 02:49:25;;;;;;;17.13;9.83;;;16.00;99.90;;;;;;5078916;28;20236;-81
2023/10/02 02:51:55;;;;;;;17.57;10.10;;;16.00;99.90;;;;;;5083767;28;20248;-81
2023/10/02 02:54:25;;;;;;;17.60;10.47;;;16.00;99.90;;;;;;5072663;28;20229;-81
2023/10/02 02:56:56;;;;;;;15.00;9.63;;;16.00;99.90;;;;;;5077875;28;20237;-81
2023/10/02 02:59:27;;;;;;;18.13;10.30;;;16.00;99.90;;;;;;5078316;28;20815;-81
2023/10/02 03:02:08;;;;;;;18.00;10.93;;;16.00;99.90;;;;;;5080295;28;20902;-81
2023/10/02 03:04:38;;;;;;;16.67;9.90;;;15.90;99.90;;;;;;5077869;28;20263;-81
2023/10/02 03:07:18;;;;;;;16.03;10.00;;;15.90;99.90;;;;;;5078509;28;21453;-82
2023/10/02 03:09:45;;;;;;;16.40;10.17;;;15.90;99.90;;;;;;5074846;28;20251;-82
2023/10/02 03:12:13;;;;;;;16.53;10.30;;;15.90;99.90;;;;;;5067412;28;20233;-82
2023/10/02 03:14:43;;;;;;;19.53;10.37;;;15.90;99.90;;;;;;5078974;28;20233;-82
2023/10/02 03:17:29;;;;;;;19.43;10.33;;;15.80;99.90;;;;;;5080782;28;20226;-82
2023/10/02 03:19:59;;;;;;;17.40;9.93;;;15.80;99.90;;;;;;5075873;28;20338;-81
2023/10/02 03:22:27;;;;;;;18.27;10.70;;;15.80;99.90;;;;;;5075879;28;20300;-81
2023/10/02 03:25:24;;;;;;;16.47;9.53;;;15.80;99.90;;;;;;5077600;28;20226;-82
2023/10/02 03:27:48;;;;;;;17.70;10.00;;;15.80;99.90;;;;;;5075922;28;20225;-81
2023/10/02 03:30:35;;;;;;;18.13;10.07;;;15.70;99.90;;;;;;5076578;28;20243;-82
2023/10/02 03:33:03;;;;;;;15.17;9.83;;;15.70;99.90;;;;;;5083963;28;20316;-81
2023/10/02 03:35:34;;;;;;;16.97;9.47;;;15.70;99.90;;;;;;5081656;28;20237;-81
2023/10/02 03:38:03;;;;;;;16.40;9.87;;;15.70;99.90;;;;;;5079776;28;20225;-81
2023/10/02 03:40:31;;;;;;;16.70;9.90;;;15.70;99.90;;;;;;5080532;28;20232;-81
2023/10/02 03:43:18;;;;;;;20.07;10.07;;;15.60;99.90;;;;;;5073736;28;20248;-82
2023/10/02 03:45:50;;;;;;;18.83;9.83;;;15.60;99.90;;;;;;5073349;28;20231;-81
2023/10/02 03:48:18;;;;;;;15.70;9.33;;;15.50;99.90;;;;;;5077955;28;20487;-81
2023/10/02 03:50:44;;;;;;;16.73;10.33;;;15.50;99.90;;;;;;5077735;28;20292;-81
2023/10/02 03:53:15;;;;;;;23.80;10.37;;;15.40;99.90;;;;;;5078732;28;20455;-82
2023/10/02 03:55:59;;;;;;;17.90;9.97;;;15.40;99.90;;;;;;5073505;28;20313;-81
2023/10/02 03:58:38;;;;;;;16.57;10.47;;;15.30;99.90;;;;;;5077020;28;20716;-82
2023/10/02 04:01:08;;;;;;;18.13;10.83;;;15.30;99.90;;;;;;5079097;28;20221;-81
2023/10/02 04:03:52;;;;;;;17.53;9.93;;;15.20;99.90;;;;;;5070614;28;20387;-81
2023/10/02 04:06:33;;;;;;;16.03;10.33;;;15.10;99.90;;;;;;5078552;28;20710;-82
2023/10/02 04:09:09;;;;;;;18.23;10.13;;;15.10;99.90;;;;;;5079068;28;20279;-81
2023/10/02 04:11:39;;;;;;;23.27;10.67;;;15.00;99.90;;;;;;5073903;28;20224;-81
2023/10/02 04:14:17;;;;;;;20.10;10.90;;;14.90;99.90;;;;;;5077540;28;20602;-82
2023/10/02 04:16:48;;;;;;;18.57;10.93;;;14.90;99.90;;;;;;5078734;28;20248;-82
2023/10/02 04:19:15;;;;;;;17.93;10.97;;;14.80;99.90;;;;;;5083587;28;20220;-81
2023/10/02 04:21:45;;;;;;;19.37;10.30;;;14.80;99.90;;;;;;5085908;28;20221;-82
2023/10/02 04:24:11;;;;;;;20.47;11.33;;;14.70;99.90;;;;;;5086283;28;20308;-81
2023/10/02 04:26:41;;;;;;;20.47;11.97;;;14.70;99.90;;;;;;5077772;28;20232;-81
2023/10/02 04:29:15;;;;;;;19.37;10.70;;;14.70;99.90;;;;;;5089697;28;20309;-81
2023/10/02 04:31:44;;;;;;;19.93;11.17;;;14.70;99.90;;;;;;5083375;28;20427;-81
2023/10/02 04:34:15;;;;;;;20.17;11.60;;;14.70;99.90;;;;;;5099612;27;20217;-82
2023/10/02 04:36:43;;;;;;;19.33;10.60;;;14.70;99.90;;;;;;5080429;28;20215;-82
2023/10/02 04:42:09;;;;;;;17.77;10.07;;;14.70;99.90;;;;;;5076219;28;20242;-83
2023/10/02 04:44:44;;;;;;;19.00;10.70;;;14.70;99.90;;;;;;5077571;28;20226;-82
2023/10/02 04:47:17;;;;;;;17.60;10.50;;;14.70;99.90;;;;;;5081623;28;20240;-84
2023/10/02 04:50:34;;;;;;;18.53;10.97;;;14.80;99.90;;;;;;5081260;28;20232;-83
2023/10/02 04:52:57;;;;;;;17.90;9.97;;;14.80;99.90;;;;;;5078199;28;20449;-82
2023/10/02 04:55:25;;;;;;;18.53;10.90;;;14.90;99.90;;;;;;5073857;28;20223;-82
2023/10/02 04:57:54;;;;;;;19.00;11.23;;;14.90;99.90;;;;;;5086593;28;20607;-82
2023/10/02 05:00:32;;;;;;;17.17;10.90;;;14.90;99.90;;;;;;5080802;28;20238;-81
2023/10/02 05:03:17;;;;;;;19.30;10.33;;;14.90;99.90;;;;;;5079304;28;20224;-84
2023/10/02 05:05:49;;;;;;;18.53;10.67;;;15.00;99.90;;;;;;5078626;28;20225;-83
2023/10/02 05:08:21;;;;;;;18.03;10.33;;;15.00;99.90;;;;;;5076443;28;20248;-83
2023/10/02 05:10:49;;;;;;;18.93;10.50;;;15.10;99.90;;;;;;5082535;28;20223;-82
2023/10/02 05:16:14;;;;;;;20.93;11.37;;;15.20;99.90;;;;;;5073115;28;20222;-84
2023/10/02 05:18:44;;;;;;;17.77;10.90;;;15.20;99.90;;;;;;5089048;27;20219;-83
2023/10/02 05:21:16;;;;;;;17.53;10.63;;;15.20;99.90;;;;;;5078330;28;20228;-83
2023/10/02 05:23:56;;;;;;;16.97;10.23;;;15.20;99.90;;;;;;5081014;28;20297;-83
2023/10/02 05:26:32;;;;;;;16.77;10.13;;;15.20;99.90;;;;;;5079757;28;20225;-84
2023/10/02 05:29:00;;;;;;;17.13;9.50;;;15.30;99.90;;;;;;5077532;28;20234;-84
2023/10/02 05:31:28;;;;;;;18.37;10.67;;;15.30;99.90;;;;;;5080708;28;20279;-82
2023/10/02 05:33:57;;;;;;;18.60;10.27;;;15.30;99.90;;;;;;5082669;28;20318;-83
2023/10/02 05:36:29;;;;;;;17.03;10.63;;;15.30;99.90;;;;;;5078374;28;20286;-84
2023/10/02 05:39:27;;;;;;;19.60;10.63;;;15.30;99.90;;;;;;5079147;28;20220;-84
2023/10/02 05:41:56;;;;;;;20.37;10.30;;;15.40;99.90;;;;;;5063653;28;20223;-83
2023/10/02 05:44:25;;;;;;;16.40;10.20;;;15.40;99.90;;;;;;5070060;28;20306;-80
2023/10/02 05:46:56;;;;;;;15.90;10.50;;;15.40;99.90;;;;;;5077096;28;20434;-81
2023/10/02 05:49:24;;;;;;;17.70;10.33;;;15.40;99.90;;;;;;5083680;28;20215;-81
2023/10/02 05:51:55;;;;;;;19.07;10.63;;;15.40;99.90;;;;;;5086603;28;20320;-80
2023/10/02 05:54:26;;;;;;;17.73;9.70;;;15.40;99.90;;;;;;5077882;28;20251;-81
2023/10/02 05:57:08;;;;;;;17.47;10.00;;;15.50;99.90;;;;;;5078457;28;20307;-81
2023/10/02 05:59:43;;;;;;;15.13;9.77;;;15.50;99.90;;;;;;5078207;28;20314;-82
2023/10/02 06:02:12;;;;;;;15.40;9.73;;;15.50;99.90;;;;;;5077905;28;20578;-80
2023/10/02 06:04:43;;;;;;;16.87;9.73;;;15.50;99.90;;;;;;5078975;28;20301;-81
2023/10/02 06:07:15;;;;;;;18.03;10.13;;;15.60;99.90;;;;;;5074421;28;20316;-82
2023/10/02 06:09:45;;;;;;;18.27;10.53;;;15.60;99.90;;;;;;5080446;28;20225;-81
2023/10/02 06:12:12;;;;;;;16.03;9.93;;;15.60;99.90;;;;;;5081962;28;20249;-81
2023/10/02 06:14:39;;;;;;;17.50;10.07;;;15.60;99.90;;;;;;5078054;28;20407;-81
2023/10/02 06:17:11;;;;;;;16.07;10.10;;;15.60;99.90;;;;;;5081927;28;20312;-81
2023/10/02 06:19:43;;;;;;;17.83;10.77;;;15.60;99.90;;;;;;5079046;28;20712;-81
2023/10/02 06:22:13;;;;;;;18.80;10.77;;;15.60;99.90;;;;;;5061919;28;20217;-81
2023/10/02 06:24:40;;;;;;;19.90;10.10;;;15.60;99.90;;;;;;5056859;28;20231;-81
2023/10/02 06:27:13;;;;;;;16.33;9.70;;;15.60;99.90;;;;;;5054011;28;20217;-81
2023/10/02 06:29:44;;;;;;;17.97;10.13;;;15.70;99.90;;;;;;5057536;28;20239;-84
2023/10/02 06:32:19;;;;;;;14.83;9.50;;;15.70;99.90;;;;;;5044244;28;20324;-84
2023/10/02 06:34:47;;;;;;;17.13;9.67;;;15.70;99.90;;;;;;5048363;28;20230;-84
2023/10/02 06:37:17;;;;;;;15.47;9.60;;;15.80;99.90;;;;;;5058014;28;20340;-84
2023/10/02 06:39:46;;;;;;;18.30;10.10;;;15.80;99.90;;;;;;5067072;28;22296;-84
2023/10/02 06:42:17;;;;;;;18.13;10.83;;;15.90;99.90;;;;;;5066887;28;20231;-87
2023/10/02 06:44:53;;;;;;;17.07;10.67;;;15.90;99.90;;;;;;5058309;28;20589;-85
2023/10/02 06:47:23;;;;;;;16.77;9.90;;;16.00;99.90;;;;;;5049414;28;20843;-84
2023/10/02 06:49:51;;;;;;;14.53;9.40;;;16.10;99.90;;;;;;5051907;28;20763;-84
2023/10/02 06:52:21;;;;;;;15.10;9.37;;;16.10;99.90;;;;;;5053905;28;20226;-84
2023/10/02 06:54:49;;;;;;;16.87;9.93;;;16.20;99.90;;;;;;5065734;28;20308;-84
2023/10/02 06:57:20;;;;;;;18.47;10.60;;;16.20;99.90;;;;;;5053766;28;20332;-84
2023/10/02 06:59:55;;;;;;;15.67;9.13;;;16.30;99.90;;;;;;5056545;28;20358;-84
2023/10/02 07:02:24;;;;;;;17.77;9.80;;;16.30;99.90;;;;;;5060866;28;20277;-84
2023/10/02 07:04:53;;;;;;;16.07;10.00;;;16.30;99.90;;;;;;5080784;28;20219;-84
2023/10/02 07:07:24;;;;;;;17.83;10.77;;;16.40;99.90;;;;;;5079927;28;20222;-84
2023/10/02 07:09:54;;;;;;;17.67;10.50;;;16.40;99.90;;;;;;5071415;28;20237;-83
2023/10/02 07:12:21;;;;;;;17.13;10.13;;;16.40;99.90;;;;;;5071424;28;20223;-82
2023/10/02 07:14:49;;;;;;;17.13;10.83;;;16.50;99.90;;;;;;5077590;28;20264;-83
2023/10/02 07:17:22;;;;;;;14.73;8.67;;;16.50;99.90;;;;;;5075577;28;20327;-82
2023/10/02 07:19:50;;;;;;;15.73;10.33;;;16.50;99.90;;;;;;5076718;28;20229;-81
2023/10/02 07:22:24;;;;;;;18.70;9.97;;;16.50;99.90;;;;;;5073616;28;20245;-82
2023/10/02 07:24:56;;;;;;;17.03;9.83;;;16.60;99.90;;;;;;5077068;28;20300;-81
2023/10/02 07:27:27;;;;;;;15.80;9.77;;;16.70;99.90;;;;;;5072708;28;20230;-82
2023/10/02 07:29:56;;;;;;;16.03;10.40;;;16.70;99.90;;;;;;5070776;28;20761;-84
2023/10/02 07:32:24;;;;;;;19.40;10.80;;;16.80;99.90;;;;;;5069408;28;20370;-82
2023/10/02 07:34:53;;;;;;;22.37;11.20;;;16.80;99.90;;;;;;5074270;28;20268;-82
2023/10/02 07:37:24;;;;;;;17.70;10.83;;;16.90;99.90;;;;;;5078522;28;20230;-82
2023/10/02 07:39:57;;;;;;;15.80;9.50;;;16.90;99.90;;;;;;5066402;28;20295;-82
2023/10/02 07:42:29;;;;;;;19.20;10.93;;;17.00;99.90;;;;;;5076571;28;20282;-82
2023/10/02 07:45:11;;;;;;;20.53;11.40;;;17.10;99.90;;;;;;5077557;28;20228;-81
2023/10/02 07:47:40;;;;;;;16.57;9.57;;;17.20;99.90;;;;;;5077022;28;20237;-81
2023/10/02 07:50:24;;;;;;;14.23;9.40;;;17.20;99.90;;;;;;5077938;28;20266;-81
2023/10/02 07:52:52;;;;;;;17.83;10.43;;;17.30;99.90;;;;;;5080552;28;20315;-81
2023/10/02 07:55:23;;;;;;;18.40;10.20;;;17.40;99.90;;;;;;5074609;28;20238;-82
2023/10/02 07:57:58;;;;;;;20.00;11.00;;;17.50;99.90;;;;;;5052677;28;20277;-81
2023/10/02 08:00:40;;;;;;;18.37;10.37;;;17.50;99.90;;;;;;5065501;28;20716;-81
2023/10/02 08:03:36;;;;;;;17.43;10.50;;;17.60;99.90;;;;;;5069830;27;20311;-81
2023/10/02 08:06:33;;;;;;;17.00;9.83;;;17.60;99.90;;;;;;5077573;28;20246;-81
2023/10/02 08:11:51;;;;;;;16.73;10.02;;;17.90;99.90;;;;;;5077692;28;20228;-81
2023/10/02 08:17:08;;;;;;;18.30;10.53;;;18.10;99.90;;;;;;5079014;28;20214;-82
2023/10/02 08:19:36;;;;;;;15.65;10.00;;;18.20;99.90;;;;;;5076536;28;20268;-82
2023/10/02 08:22:05;;;;;;;17.35;10.05;;;18.40;99.90;;;;;;5079593;28;20222;-84
2023/10/02 08:24:37;;;;;;;15.48;10.07;;;18.50;99.90;;;;;;5085947;28;20222;-81
2023/10/02 08:27:05;;;;;;;17.83;10.30;;;18.60;99.90;;;;;;5086996;28;20220;-81
2023/10/02 08:29:33;;;;;;;16.77;10.20;;;18.70;99.90;;;;;;5086957;28;20223;-82
2023/10/02 08:32:01;;;;;;;16.48;9.60;;;18.90;99.90;;;;;;5084616;28;20746;-81
2023/10/02 08:34:28;;;;;;;13.00;9.43;;;19.00;99.90;;;;;;5084483;28;20273;-81
2023/10/02 08:37:07;;;;;;;19.73;10.90;;;19.20;99.90;;;;;;5080861;28;20649;-82
2023/10/02 08:39:38;;;;;;;16.80;10.15;;;19.40;99.90;;;;;;5057675;28;20235;-82
2023/10/02 08:42:09;;;;;;;18.70;10.18;;;19.60;99.90;;;;;;5081069;28;20602;-81
2023/10/02 08:44:38;;;;;;;17.70;9.88;;;19.80;99.90;;;;;;5063530;28;20233;-81
2023/10/02 08:47:06;;;;;;;17.30;9.85;;;20.00;99.90;;;;;;5076022;28;20222;-82
2023/10/02 08:49:35;;;;;;;17.55;10.15;;;20.20;99.90;;;;;;5065575;28;20519;-82
2023/10/02 08:52:03;;;;;;;16.00;9.90;;;20.40;99.90;;;;;;5053868;28;20307;-82
2023/10/02 08:54:33;;;;;;;16.23;10.52;;;20.70;99.90;;;;;;5057491;28;20227;-81
2023/10/02 08:57:08;;;;;;;17.30;10.35;;;20.90;99.90;;;;;;5058401;28;20740;-82
2023/10/02 08:59:41;;;;;;;18.20;9.23;;;21.10;99.90;;;;;;5059658;28;20263;-82
2023/10/02 09:02:13;;;;;;;15.73;10.35;;;21.30;99.90;;;;;;5060440;28;20219;-82
2023/10/02 09:04:41;;;;;;;16.50;10.93;;;21.60;99.90;;;;;;5060490;28;20768;-82
2023/10/02 09:07:23;;;;;;;17.52;9.95;;;21.80;99.90;;;;;;5059191;28;20224;-82
2023/10/02 09:10:12;;;;;;;14.52;9.40;;;22.00;99.90;;;;;;5062220;28;21081;-82
2023/10/02 09:12:48;;;;;;;17.25;10.35;;;22.20;99.90;;;;;;5061260;28;20295;-82
2023/10/02 09:15:29;;;;;;;16.33;9.48;;;22.40;99.90;;;;;;5067893;28;20230;-82
2023/10/02 09:17:58;;;;;;;15.85;9.73;;;22.70;99.90;;;;;;5055414;28;20534;-83
2023/10/02 09:20:38;;;;;;;20.30;10.23;;;22.90;99.90;;;;;;5063085;28;20302;-82
2023/10/02 09:23:09;;;;;;;14.48;9.10;;;23.10;99.90;;;;;;5056383;28;20288;-81
2023/10/02 09:25:37;;;;;;;18.10;9.82;;;23.30;99.90;;;;;;5063022;28;20322;-82
2023/10/02 09:28:13;;;;;;;15.68;9.93;;;23.50;99.90;;;;;;5053002;28;20310;-82
2023/10/02 09:30:41;;;;;;;16.80;10.68;;;23.60;99.90;;;;;;5058169;28;20228;-82
2023/10/02 09:33:10;;;;;;;16.25;9.95;;;23.80;99.90;;;;;;5061059;28;20739;-81
2023/10/02 09:35:42;;;;;;;15.82;9.90;;;24.00;99.90;;;;;;5063857;28;20231;-81
2023/10/02 09:38:13;;;;;;;16.75;9.48;;;24.10;99.90;;;;;;5052960;28;20345;-82
2023/10/02 09:40:54;;;;;;;18.10;10.23;;;24.30;99.90;;;;;;5065704;28;20593;-81
2023/10/02 09:43:24;;;;;;;14.68;9.10;;;24.40;99.90;;;;;;5064379;28;20437;-82
2023/10/02 09:45:54;;;;;;;17.83;10.40;;;24.60;99.90;;;;;;5082684;28;20242;-82
2023/10/02 09:49:01;;;;;;;17.27;10.40;;;24.70;99.90;;;;;;5073998;28;20249;-82
2023/10/02 09:51:45;;;;;;;16.52;10.35;;;24.80;99.90;;;;;;5071874;28;20281;-81
2023/10/02 09:54:20;;;;;;;17.52;9.95;;;24.90;99.90;;;;;;5076268;28;20653;-81
2023/10/02 09:57:05;;;;;;;18.45;10.35;;;25.00;99.90;;;;;;5079504;28;20320;-82
2023/10/02 09:59:45;;;;;;;16.65;9.80;;;25.10;99.90;;;;;;5065504;28;20305;-83
2023/10/02 10:05:45;;;;;;;15.98;10.13;;;25.20;99.90;;;;;;5076463;28;20396;-82
2023/10/02 10:08:28;;;;;;;17.08;9.57;;;25.20;99.90;;;;;;5078417;28;20777;-84
2023/10/02 10:10:57;;;;;;;16.52;9.15;;;25.30;99.90;;;;;;5078440;28;20749;-85
2023/10/02 10:13:32;;;;;;;15.27;9.93;;;25.30;99.90;;;;;;5076390;28;20242;-84
2023/10/02 10:16:38;;;;;;;17.17;10.10;;;25.40;99.90;;;;;;5076083;28;20232;-84
2023/10/02 10:19:32;;;;;;;15.20;9.77;;;25.50;99.90;;;;;;5088392;28;20525;-84
2023/10/02 10:22:00;;;;;;;15.38;9.85;;;25.50;99.90;;;;;;5078358;28;20321;-83
2023/10/02 10:24:56;;;;;;;15.30;9.05;;;25.60;99.90;;;;;;5079424;28;20212;-83
2023/10/02 10:28:04;;;;;;;13.75;9.32;;;25.70;99.90;;;;;;5084382;28;20230;-83
2023/10/02 10:30:39;;;;;;;16.80;9.38;;;25.70;99.90;;;;;;5074588;28;20327;-83
2023/10/02 10:33:35;;;;;;;16.95;9.23;;;25.60;99.90;;;;;;5067656;28;21058;-83
2023/10/02 10:36:13;;;;;;;14.90;9.13;;;25.50;99.90;;;;;;5079084;28;20283;-83
2023/10/02 10:38:42;;;;;;;15.43;9.55;;;25.50;99.90;;;;;;5078306;28;20614;-84
2023/10/02 10:41:15;;;;;;;14.55;8.88;;;25.40;99.90;;;;;;5070449;28;20223;-84
2023/10/02 10:43:55;;;;;;;17.05;9.82;;;25.40;99.90;;;;;;5078753;28;20218;-83
2023/10/02 10:46:25;;;;;;;17.50;9.90;;;25.40;99.90;;;;;;5077551;28;20285;-84
2023/10/02 10:49:07;;;;;;;18.27;8.88;;;25.50;99.90;;;;;;5077928;28;20219;-84
2023/10/02 10:51:35;;;;;;;13.77;9.05;;;25.60;99.90;;;;;;5074185;28;20544;-83
2023/10/02 10:54:19;;;;;;;15.13;9.32;;;25.70;99.90;;;;;;5074437;28;20243;-84
2023/10/02 10:56:57;;;;;;;16.58;9.95;;;25.80;99.90;;;;;;5075164;28;20254;-85
2023/10/02 10:59:32;;;;;;;14.55;10.10;;;26.00;99.90;;;;;;5074588;28;20319;-84
2023/10/02 11:02:12;;;;;;;15.50;9.40;;;26.10;99.90;;;;;;5076933;28;20599;-84
2023/10/02 11:04:47;;;;;;;16.50;9.57;;;26.20;99.90;;;;;;5091757;28;20238;-84
2023/10/02 11:07:22;;;;;;;15.57;9.88;;;26.40;99.90;;;;;;5075664;28;20352;-84
2023/10/02 11:10:14;;;;;;;14.48;9.52;;;26.50;99.90;;;;;;5079969;28;20420;-84
2023/10/02 11:12:43;;;;;;;14.50;8.90;;;26.60;99.90;;;;;;5074297;28;20321;-86
2023/10/02 11:15:43;;;;;;;15.27;9.25;;;26.70;99.90;;;;;;5074340;28;20218;-85
2023/10/02 11:18:20;;;;;;;16.50;8.98;;;26.70;99.80;;;;;;5077246;28;20554;-83
2023/10/02 11:20:50;;;;;;;13.93;8.55;;;26.80;99.70;;;;;;5075505;28;20242;-85
2023/10/02 11:23:23;;;;;;;17.15;11.95;;;26.80;99.70;;;;;;5072276;28;20245;-84
2023/10/02 11:25:54;;;;;;;17.90;9.38;;;26.90;99.80;;;;;;5070335;28;20303;-84
2023/10/02 11:28:32;;;;;;;12.82;8.65;;;26.90;99.60;;;;;;5074565;28;20230;-84
2023/10/02 11:31:30;;;;;;;12.40;8.57;;;26.90;99.10;;;;;;5081485;28;20623;-84
2023/10/02 11:34:04;;;;;;;13.63;8.50;;;26.90;99.30;;;;;;5078549;28;20221;-84
2023/10/02 11:36:35;;;;;;;15.60;9.27;;;27.00;99.00;;;;;;5079164;28;20241;-82
2023/10/02 11:39:08;;;;;;;13.00;8.40;;;27.00;99.20;;;;;;5080131;27;20301;-86
2023/10/02 11:41:36;;;;;;;14.30;8.52;;;27.00;99.50;;;;;;5076058;28;20222;-87
2023/10/02 11:44:03;;;;;;;12.82;8.00;;;27.00;99.10;;;;;;5076473;28;20231;-86
2023/10/02 11:46:31;;;;;;;14.38;8.60;;;26.90;98.80;;;;;;5074668;28;20315;-87
2023/10/02 11:48:58;;;;;;;14.52;8.68;;;26.70;98.50;;;;;;5070216;28;20237;-87
2023/10/02 11:51:28;;;;;;;12.85;8.25;;;26.60;98.70;;;;;;5080192;28;20648;-88
2023/10/02 11:53:57;;;;;;;11.38;8.00;;;26.50;99.30;;;;;;5079300;28;20234;-86
2023/10/02 11:56:25;;;;;;;13.43;8.00;;;26.40;98.60;;;;;;5072834;28;20318;-88
2023/10/02 11:58:53;;;;;;;11.93;7.65;;;26.30;98.70;;;;;;5083595;28;20245;-91
2023/10/02 12:01:21;;;;;;;11.35;7.85;;;26.30;98.90;;;;;;5079568;28;20233;-89
2023/10/02 12:03:48;;;;;;;11.88;8.50;;;26.20;98.70;;;;;;5079960;28;20250;-87
2023/10/02 12:06:16;;;;;;;11.82;7.72;;;26.10;98.50;;;;;;5079508;28;20807;-87
2023/10/02 12:08:44;;;;;;;14.07;8.13;;;26.00;98.90;;;;;;5075103;28;20230;-87
2023/10/02 12:11:13;;;;;;;13.32;8.23;;;25.90;99.00;;;;;;5078254;28;20222;-87
2023/10/02 12:13:40;;;;;;;14.55;8.10;;;25.90;99.00;;;;;;5075634;28;20345;-89
2023/10/02 12:16:10;;;;;;;12.77;8.13;;;25.80;99.00;;;;;;5081558;28;20262;-84
2023/10/02 12:18:38;;;;;;;12.95;8.43;;;25.80;99.10;;;;;;5079246;28;20230;-87
2023/10/02 12:21:08;;;;;;;16.35;8.75;;;25.80;99.20;;;;;;5075294;28;20226;-88
2023/10/02 12:23:39;;;;;;;14.35;8.23;;;25.80;98.90;;;;;;5068867;28;20302;-88
2023/10/02 12:26:07;;;;;;;14.75;8.75;;;25.70;99.00;;;;;;5073742;28;20207;-87
2023/10/02 12:28:36;;;;;;;22.83;14.27;;;25.70;99.00;;;;;;5070151;28;20218;-87
2023/10/02 12:31:08;;;;;;;15.52;8.70;;;25.70;98.90;;;;;;5075586;28;20234;-88
2023/10/02 12:33:35;;;;;;;17.90;8.63;;;25.60;98.90;;;;;;5069183;28;20226;-89
2023/10/02 12:36:03;;;;;;;15.02;8.00;;;25.60;99.10;;;;;;5079232;28;20813;-86
2023/10/02 12:38:29;;;;;;;12.00;7.78;;;25.50;99.30;;;;;;5075392;28;20310;-87
2023/10/02 12:40:56;;;;;;;14.55;8.73;;;25.50;99.30;;;;;;5076263;28;20788;-88
2023/10/02 12:43:23;;;;;;;15.02;7.85;;;25.40;99.40;;;;;;5080788;28;20741;-87
2023/10/02 12:45:51;;;;;;;14.43;8.55;;;25.30;99.50;;;;;;5076147;28;20262;-87
2023/10/02 12:48:18;;;;;;;14.07;8.85;;;25.30;99.50;;;;;;5081354;28;20259;-86
2023/10/02 12:50:45;;;;;;;12.57;8.13;;;25.20;99.80;;;;;;5084354;28;20279;-83
2023/10/02 12:53:14;;;;;;;16.20;8.88;;;25.20;99.80;;;;;;5077327;28;20326;-87
2023/10/02 12:55:44;;;;;;;13.38;8.48;;;25.20;99.90;;;;;;5083475;28;20653;-87
2023/10/02 12:58:10;;;;;;;14.55;8.55;;;25.10;99.90;;;;;;5082391;28;20572;-86
2023/10/02 13:00:37;;;;;;;12.40;7.10;;;25.10;99.90;;;;;;5084437;28;20230;-88
2023/10/02 13:03:07;;;;;;;14.02;8.35;;;25.10;99.90;;;;;;5084701;28;20227;-88
2023/10/02 13:05:35;;;;;;;13.90;8.65;;;25.10;99.90;;;;;;5083888;28;20217;-85
2023/10/02 13:08:02;;;;;;;13.43;8.85;;;25.20;99.90;;;;;;5077626;28;20303;-84
2023/10/02 13:10:29;;;;;;;17.13;9.18;;;25.30;99.90;;;;;;5079178;28;20234;-84
2023/10/02 13:12:57;;;;;;;12.65;8.85;;;25.40;99.90;;;;;;5079290;28;20242;-84
2023/10/02 13:15:25;;;;;;;15.15;8.55;;;25.60;99.90;;;;;;5078128;28;20370;-83
2023/10/02 13:17:53;;;;;;;15.13;9.10;;;25.70;99.70;;;;;;5082952;28;20219;-84
2023/10/02 13:20:21;;;;;;;14.25;8.30;;;25.80;99.70;;;;;;5079047;28;20280;-85
2023/10/02 13:22:49;;;;;;;14.13;8.60;;;25.80;99.50;;;;;;5080693;28;20337;-83